createdAt,value
2018-04-13T00:00:46.270Z,10.70
2018-04-13T00:03:14.555Z,10.70
2018-04-13T00:05:42.065Z,10.70
2018-04-13T00:08:09.593Z,10.70
2018-04-13T00:10:37.105Z,10.60
2018-04-13T00:13:04.625Z,10.60
2018-04-13T00:15:32.142Z,10.50
2018-04-13T00:17:59.668Z,10.50
2018-04-13T00:20:27.177Z,10.60
2018-04-13T00:22:54.714Z,10.50
2018-04-13T00:25:22.237Z,10.50
2018-04-13T00:27:49.753Z,10.50
2018-04-13T00:30:17.256Z,10.40
2018-04-13T00:32:45.546Z,10.40
2018-04-13T00:35:13.824Z,10.30
2018-04-13T00:37:42.140Z,10.20
2018-04-13T00:40:09.652Z,10.20
2018-04-13T00:42:37.175Z,10.20
2018-04-13T00:45:05.452Z,10.20
2018-04-13T00:47:33.741Z,10.20
2018-04-13T00:50:02.015Z,10.30
2018-04-13T00:52:29.551Z,10.20
2018-04-13T00:54:57.049Z,10.30
2018-04-13T00:57:24.572Z,10.30
2018-04-13T00:59:52.106Z,10.30
2018-04-13T01:02:20.410Z,10.20
2018-04-13T01:04:48.705Z,10.10
2018-04-13T01:07:16.207Z,10.10
2018-04-13T01:09:43.728Z,10.10
2018-04-13T01:12:11.235Z,10.10
2018-04-13T01:14:38.774Z,10.00
2018-04-13T01:17:07.071Z,10.00
2018-04-13T01:19:35.372Z,10.00
2018-04-13T01:22:03.640Z,10.00
2018-04-13T01:24:31.967Z,9.90
2018-04-13T01:26:59.470Z,9.90
2018-04-13T01:29:26.992Z,9.90
2018-04-13T01:31:55.254Z,9.80
2018-04-13T01:34:22.787Z,9.80
2018-04-13T01:36:50.299Z,9.80
2018-04-13T01:39:17.825Z,9.80
2018-04-13T01:41:45.334Z,9.80
2018-04-13T01:44:12.857Z,9.80
2018-04-13T01:46:40.371Z,9.80
2018-04-13T01:49:07.899Z,9.80
2018-04-13T01:51:35.411Z,9.70
2018-04-13T01:54:02.940Z,9.70
2018-04-13T01:56:30.521Z,9.60
2018-04-13T01:58:58.049Z,9.50
2018-04-13T02:01:26.317Z,9.40
2018-04-13T02:03:53.836Z,9.40
2018-04-13T02:06:21.353Z,9.40
2018-04-13T02:08:48.883Z,9.40
2018-04-13T02:11:16.376Z,9.30
2018-04-13T02:13:43.904Z,9.20
2018-04-13T02:16:12.209Z,9.10
2018-04-13T02:18:39.736Z,9.10
2018-04-13T02:21:07.270Z,9.10
2018-04-13T02:23:34.778Z,9.00
2018-04-13T02:26:02.316Z,9.00
2018-04-13T02:28:29.830Z,9.00
2018-04-13T02:30:57.358Z,9.00
2018-04-13T02:33:24.858Z,9.00
2018-04-13T02:35:52.389Z,9.00
2018-04-13T02:38:19.893Z,9.00
2018-04-13T02:40:47.438Z,9.10
2018-04-13T02:43:14.952Z,9.10
2018-04-13T02:45:42.482Z,9.10
2018-04-13T02:48:09.990Z,9.20
2018-04-13T02:50:37.523Z,9.30
2018-04-13T02:53:05.030Z,9.30
2018-04-13T02:55:32.552Z,9.30
2018-04-13T02:58:00.047Z,9.40
2018-04-13T03:00:27.565Z,9.50
2018-04-13T03:02:55.067Z,9.50
2018-04-13T03:05:22.599Z,9.70
2018-04-13T03:07:50.106Z,9.80
2018-04-13T03:10:17.641Z,9.70
2018-04-13T03:12:45.153Z,9.70
2018-04-13T03:15:12.682Z,9.60
2018-04-13T03:17:40.202Z,9.60
2018-04-13T03:20:07.738Z,9.60
2018-04-13T03:22:36.018Z,9.60
2018-04-13T03:25:03.536Z,9.60
2018-04-13T03:27:31.067Z,9.60
2018-04-13T03:29:59.354Z,9.60
2018-04-13T03:32:26.884Z,9.60
2018-04-13T03:34:54.394Z,9.60
2018-04-13T03:37:21.925Z,9.70
2018-04-13T03:39:49.420Z,9.70
2018-04-13T03:42:16.948Z,9.70
2018-04-13T03:44:44.448Z,9.70
2018-04-13T03:47:12.008Z,9.70
2018-04-13T03:49:39.583Z,9.70
2018-04-13T03:52:07.116Z,9.60
2018-04-13T03:54:34.678Z,9.60
2018-04-13T03:57:02.168Z,9.60
2018-04-13T03:59:29.720Z,9.70
2018-04-13T04:01:58.023Z,9.70
2018-04-13T04:04:26.297Z,9.70
2018-04-13T04:06:54.582Z,9.80
2018-04-13T04:09:22.095Z,9.80
2018-04-13T04:11:49.625Z,9.80
2018-04-13T04:14:17.135Z,9.80
2018-04-13T04:16:44.652Z,9.80
2018-04-13T04:19:13.774Z,9.90
2018-04-13T04:25:00.102Z,10.00
2018-04-13T04:27:27.629Z,10.00
2018-04-13T04:29:55.136Z,10.10
2018-04-13T04:32:22.712Z,10.10
2018-04-13T04:34:50.226Z,10.10
2018-04-13T04:37:17.757Z,10.20
2018-04-13T04:39:45.269Z,10.40
2018-04-13T04:42:13.575Z,10.50
2018-04-13T04:44:41.090Z,10.40
2018-04-13T04:47:08.638Z,10.60
2018-04-13T04:49:36.150Z,10.60
2018-04-13T04:52:03.686Z,10.60
2018-04-13T04:54:31.190Z,10.70
2018-04-13T04:56:58.725Z,10.80
2018-04-13T04:59:26.244Z,10.80
2018-04-13T05:01:53.746Z,10.80
2018-04-13T05:04:21.289Z,10.80
2018-04-13T05:06:48.816Z,10.80
2018-04-13T05:09:16.351Z,10.70
2018-04-13T05:11:43.867Z,10.80
2018-04-13T05:14:11.398Z,10.80
2018-04-13T05:16:38.901Z,10.80
2018-04-13T05:19:06.452Z,10.90
2018-04-13T05:21:34.258Z,10.90
2018-04-13T05:24:01.803Z,10.90
2018-04-13T05:26:29.318Z,10.90
2018-04-13T05:28:56.864Z,10.90
2018-04-13T05:31:24.372Z,10.90
2018-04-13T05:33:51.880Z,10.90
2018-04-13T05:36:19.378Z,10.80
2018-04-13T05:38:46.892Z,10.80
2018-04-13T05:41:14.394Z,10.80
2018-04-13T05:43:41.917Z,10.90
2018-04-13T05:46:09.518Z,11.00
2018-04-13T05:48:36.974Z,11.00
2018-04-13T05:51:04.477Z,11.00
2018-04-13T05:53:32.009Z,11.00
2018-04-13T05:55:59.515Z,10.90
2018-04-13T05:58:27.818Z,11.00
2018-04-13T06:00:55.319Z,10.90
2018-04-13T06:03:22.857Z,11.10
2018-04-13T06:05:50.377Z,11.10
2018-04-13T06:08:17.902Z,11.20
2018-04-13T06:10:45.402Z,11.30
2018-04-13T06:13:12.909Z,11.30
2018-04-13T06:15:40.444Z,11.40
2018-04-13T06:18:07.961Z,11.50
2018-04-13T06:20:36.258Z,11.70
2018-04-13T06:23:04.532Z,11.80
2018-04-13T06:25:32.084Z,11.80
2018-04-13T06:27:59.617Z,12.00
2018-04-13T06:30:27.153Z,12.00
2018-04-13T06:32:54.663Z,12.00
2018-04-13T06:35:22.193Z,12.10
2018-04-13T06:37:50.480Z,12.10
2018-04-13T06:40:18.005Z,12.10
2018-04-13T06:42:45.508Z,12.10
2018-04-13T06:45:13.035Z,12.30
2018-04-13T06:47:40.554Z,12.30
2018-04-13T06:50:08.852Z,12.30
2018-04-13T06:52:37.129Z,11.90
2018-04-13T06:55:04.666Z,11.90
2018-04-13T06:57:32.214Z,11.70
2018-04-13T06:59:59.758Z,11.80
2018-04-13T07:02:27.289Z,11.90
2018-04-13T07:04:54.825Z,11.90
2018-04-13T07:07:22.344Z,12.10
2018-04-13T07:09:49.877Z,12.20
2018-04-13T07:12:17.385Z,12.30
2018-04-13T07:14:44.892Z,12.40
2018-04-13T07:17:13.177Z,12.60
2018-04-13T07:19:41.461Z,12.60
2018-04-13T07:22:09.763Z,12.40
2018-04-13T07:24:38.054Z,12.40
2018-04-13T07:27:06.344Z,12.50
2018-04-13T07:29:33.845Z,12.50
2018-04-13T07:32:01.379Z,12.60
2018-04-13T07:34:29.664Z,12.70
2018-04-13T07:36:57.206Z,12.70
2018-04-13T07:39:24.768Z,12.70
2018-04-13T07:41:52.275Z,12.80
2018-04-13T07:44:19.785Z,12.90
2018-04-13T07:46:47.336Z,13.00
2018-04-13T07:49:15.606Z,13.10
2018-04-13T07:51:43.139Z,13.10
2018-04-13T07:54:10.644Z,13.20
2018-04-13T07:56:38.184Z,13.30
2018-04-13T07:59:05.717Z,13.40
2018-04-13T08:01:33.249Z,13.40
2018-04-13T08:04:00.756Z,13.40
2018-04-13T08:06:29.276Z,13.40
2018-04-13T08:08:56.589Z,13.40
2018-04-13T08:11:24.143Z,13.50
2018-04-13T08:13:51.682Z,13.50
2018-04-13T08:16:19.205Z,13.50
2018-04-13T08:18:46.709Z,13.50
2018-04-13T08:21:15.001Z,13.20
2018-04-13T08:23:42.504Z,13.20
2018-04-13T08:26:10.004Z,13.20
2018-04-13T08:28:37.533Z,13.20
2018-04-13T08:31:05.045Z,13.30
2018-04-13T08:33:32.587Z,13.40
2018-04-13T08:36:00.097Z,13.40
2018-04-13T08:38:27.629Z,13.30
2018-04-13T08:40:55.136Z,13.30
2018-04-13T08:43:22.725Z,13.40
2018-04-13T08:45:50.240Z,13.40
2018-04-13T08:48:17.755Z,13.30
2018-04-13T08:50:45.484Z,13.10
2018-04-13T08:53:14.088Z,13.20
2018-04-13T08:55:41.842Z,13.10
2018-04-13T08:58:09.460Z,13.10
2018-04-13T09:00:36.978Z,13.10
2018-04-13T09:03:05.274Z,13.20
2018-04-13T09:05:32.786Z,13.10
2018-04-13T09:08:00.318Z,13.20
2018-04-13T09:10:27.864Z,13.20
2018-04-13T09:12:56.174Z,13.30
2018-04-13T09:15:23.685Z,13.30
2018-04-13T09:17:51.206Z,13.30
2018-04-13T09:20:19.474Z,13.20
2018-04-13T09:22:47.036Z,13.10
2018-04-13T09:25:14.540Z,13.20
2018-04-13T09:27:42.874Z,13.20
2018-04-13T09:30:10.404Z,13.10
2018-04-13T09:32:38.705Z,13.30
2018-04-13T09:35:06.257Z,13.20
2018-04-13T09:37:34.566Z,13.60
2018-04-13T09:40:02.102Z,13.60
2018-04-13T09:42:29.601Z,13.60
2018-04-13T09:44:57.134Z,13.60
2018-04-13T09:47:24.642Z,13.50
2018-04-13T09:49:52.944Z,13.30
2018-04-13T09:52:20.457Z,13.20
2018-04-13T09:54:48.748Z,13.00
2018-04-13T09:57:16.296Z,13.00
2018-04-13T09:59:43.795Z,12.90
2018-04-13T10:05:20.593Z,12.70
2018-04-13T10:07:48.348Z,12.80
2018-04-13T10:10:16.025Z,12.70
2018-04-13T10:12:43.717Z,12.80
2018-04-13T10:15:11.299Z,12.70
2018-04-13T10:17:38.823Z,12.70
2018-04-13T10:20:07.146Z,12.40
2018-04-13T10:22:34.661Z,12.40
2018-04-13T10:25:02.201Z,12.20
2018-04-13T10:27:29.732Z,11.90
2018-04-13T10:29:58.043Z,11.70
2018-04-13T10:32:25.568Z,11.70
2018-04-13T10:34:53.129Z,11.50
2018-04-13T10:37:20.646Z,11.40
2018-04-13T10:39:48.182Z,11.20
2018-04-13T10:42:15.717Z,11.00
2018-04-13T10:44:43.246Z,10.90
2018-04-13T10:47:10.787Z,10.80
2018-04-13T10:49:38.303Z,10.70
2018-04-13T10:52:05.834Z,10.50
2018-04-13T10:54:33.363Z,10.30
2018-04-13T10:57:00.905Z,10.20
2018-04-13T10:59:28.451Z,10.10
2018-04-13T11:01:55.999Z,10.10
2018-04-13T11:04:24.291Z,10.10
2018-04-13T11:06:51.853Z,10.10
2018-04-13T11:09:19.444Z,10.20
2018-04-13T11:11:46.986Z,10.30
2018-04-13T11:14:14.505Z,10.30
2018-04-13T11:16:42.041Z,10.30
2018-04-13T11:19:09.563Z,10.30
2018-04-13T11:21:37.928Z,10.30
2018-04-13T11:24:06.163Z,10.30
2018-04-13T11:26:33.709Z,10.30
2018-04-13T11:29:02.023Z,10.30
2018-04-13T11:31:29.568Z,10.30
2018-04-13T11:33:57.889Z,10.30
2018-04-13T11:36:25.453Z,10.30
2018-04-13T11:38:52.989Z,10.40
2018-04-13T11:41:20.533Z,10.30
2018-04-13T11:43:48.078Z,10.30
2018-04-13T11:46:15.624Z,10.30
2018-04-13T11:48:43.923Z,10.30
2018-04-13T11:51:12.226Z,10.30
2018-04-13T11:53:39.762Z,10.30
2018-04-13T11:56:07.296Z,10.30
2018-04-13T11:58:34.806Z,10.30
2018-04-13T12:01:02.368Z,10.30
2018-04-13T12:03:29.894Z,10.30
2018-04-13T12:05:57.442Z,10.30
2018-04-13T12:08:25.741Z,10.30
2018-04-13T12:10:53.298Z,10.30
2018-04-13T12:13:21.598Z,10.30
2018-04-13T12:15:49.172Z,10.30
2018-04-13T12:18:16.682Z,10.30
2018-04-13T12:20:44.250Z,10.30
2018-04-13T12:23:11.787Z,10.30
2018-04-13T12:25:39.345Z,10.30
2018-04-13T12:28:07.748Z,10.40
2018-04-13T12:30:35.284Z,10.40
2018-04-13T12:33:02.856Z,10.50
2018-04-13T12:35:30.374Z,10.50
2018-04-13T12:37:57.911Z,10.60
2018-04-13T12:40:26.244Z,10.50
2018-04-13T12:42:53.790Z,10.50
2018-04-13T12:45:22.069Z,10.60
2018-04-13T12:47:49.611Z,10.50
2018-04-13T12:50:17.142Z,10.70
2018-04-13T12:52:44.751Z,10.70
2018-04-13T12:55:12.484Z,10.80
2018-04-13T12:57:40.558Z,10.90
2018-04-13T13:00:08.900Z,10.90
2018-04-13T13:02:36.443Z,10.90
2018-04-13T13:05:03.963Z,11.00
2018-04-13T13:07:31.506Z,10.80
2018-04-13T13:09:59.052Z,10.70
2018-04-13T13:12:26.595Z,10.70
2018-04-13T13:14:54.129Z,10.70
2018-04-13T13:17:21.679Z,10.80
2018-04-13T13:19:49.206Z,11.00
2018-04-13T13:22:16.741Z,10.90
2018-04-13T13:24:44.259Z,10.80
2018-04-13T13:27:12.568Z,10.90
2018-04-13T13:29:40.091Z,10.80
2018-04-13T13:32:07.652Z,10.90
2018-04-13T13:34:35.184Z,11.00
2018-04-13T13:37:03.440Z,11.00
2018-04-13T13:39:30.949Z,11.00
2018-04-13T13:41:58.474Z,10.90
2018-04-13T13:44:25.995Z,11.00
2018-04-13T13:46:53.552Z,11.10
2018-04-13T13:49:21.835Z,11.00
2018-04-13T13:51:50.142Z,11.00
2018-04-13T13:54:17.661Z,11.00
2018-04-13T13:56:45.198Z,10.80
2018-04-13T13:59:12.739Z,10.90
2018-04-13T14:01:41.031Z,10.80
2018-04-13T14:04:09.362Z,10.70
2018-04-13T14:06:36.885Z,10.70
2018-04-13T14:09:05.163Z,10.60
2018-04-13T14:11:33.446Z,10.30
2018-04-13T14:14:01.004Z,10.30
2018-04-13T14:16:28.531Z,10.30
2018-04-13T14:18:56.065Z,10.30
2018-04-13T14:21:23.583Z,10.30
2018-04-13T14:23:51.125Z,10.30
2018-04-13T14:26:19.448Z,10.30
2018-04-13T14:28:46.990Z,10.30
2018-04-13T14:31:15.286Z,10.40
2018-04-13T14:33:42.858Z,10.40
2018-04-13T14:36:11.147Z,10.60
2018-04-13T14:38:38.727Z,10.50
2018-04-13T14:41:06.990Z,10.70
2018-04-13T14:43:35.319Z,10.60
2018-04-13T14:46:02.842Z,10.60
2018-04-13T14:48:30.380Z,10.60
2018-04-13T14:50:57.964Z,10.60
2018-04-13T14:53:25.473Z,10.60
2018-04-13T14:55:53.747Z,10.80
2018-04-13T14:58:21.310Z,10.80
2018-04-13T15:00:48.833Z,11.00
2018-04-13T15:03:16.393Z,11.00
2018-04-13T15:05:44.674Z,11.10
2018-04-13T15:08:12.987Z,11.10
2018-04-13T15:10:40.511Z,11.10
2018-04-13T15:13:08.064Z,11.20
2018-04-13T15:15:36.358Z,11.30
2018-04-13T15:18:03.893Z,11.20
2018-04-13T15:20:31.425Z,11.40
2018-04-13T15:22:58.988Z,11.40
2018-04-13T15:25:26.497Z,11.60
2018-04-13T15:27:54.038Z,11.70
2018-04-13T15:30:21.589Z,11.80
2018-04-13T15:32:49.121Z,11.90
2018-04-13T15:35:16.635Z,12.00
2018-04-13T15:37:44.201Z,12.10
2018-04-13T15:40:11.783Z,12.10
2018-04-13T15:42:39.309Z,12.10
2018-04-13T15:45:06.843Z,12.20
2018-04-13T15:47:35.153Z,12.30
2018-04-13T15:50:02.700Z,12.20
2018-04-13T15:52:30.220Z,12.30
2018-04-13T15:54:57.776Z,12.30
2018-04-13T15:57:25.300Z,12.30
2018-04-13T15:59:52.829Z,12.40
2018-04-13T16:02:20.350Z,12.20
2018-04-13T16:04:47.891Z,12.30
2018-04-13T16:07:15.595Z,12.50
2018-04-13T16:09:43.145Z,12.60
2018-04-13T16:12:10.727Z,12.60
2018-04-13T16:14:38.213Z,12.60
2018-04-13T16:17:05.741Z,12.70
2018-04-13T16:19:33.250Z,12.60
2018-04-13T16:22:00.777Z,12.70
2018-04-13T16:24:28.336Z,12.80
2018-04-13T16:26:55.865Z,12.80
2018-04-13T16:29:23.387Z,12.80
2018-04-13T16:31:50.929Z,12.80
2018-04-13T16:34:19.212Z,12.90
2018-04-13T16:36:46.773Z,12.90
2018-04-13T16:39:14.299Z,12.80
2018-04-13T16:41:41.872Z,12.80
2018-04-13T16:44:09.416Z,12.70
2018-04-13T16:46:37.712Z,12.70
2018-04-13T16:49:05.260Z,12.60
2018-04-13T16:51:32.790Z,12.70
2018-04-13T16:54:00.360Z,12.70
2018-04-13T16:56:27.894Z,12.60
2018-04-13T16:58:56.186Z,12.50
2018-04-13T17:01:24.484Z,12.50
2018-04-13T17:03:52.019Z,12.50
2018-04-13T17:06:19.550Z,12.50
2018-04-13T17:08:47.096Z,12.40
2018-04-13T17:11:15.387Z,12.40
2018-04-13T17:13:43.692Z,12.30
2018-04-13T17:16:11.209Z,12.30
2018-04-13T17:18:38.732Z,12.20
2018-04-13T17:21:06.281Z,12.20
2018-04-13T17:23:33.820Z,12.10
2018-04-13T17:26:01.330Z,12.10
2018-04-13T17:28:28.895Z,12.00
2018-04-13T17:30:57.188Z,11.90
2018-04-13T17:33:25.498Z,11.80
2018-04-13T17:35:53.003Z,11.80
2018-04-13T17:38:20.542Z,11.70
2018-04-13T17:40:48.072Z,11.60
2018-04-13T17:43:15.599Z,11.60
2018-04-13T17:45:43.149Z,11.50
2018-04-13T17:48:10.676Z,11.50
2018-04-13T17:50:38.225Z,11.40
2018-04-13T17:53:06.528Z,11.30
2018-04-13T17:55:34.084Z,11.30
2018-04-13T17:58:01.593Z,11.20
2018-04-13T18:00:29.184Z,11.10
2018-04-13T18:02:56.702Z,11.10
2018-04-13T18:05:24.248Z,11.00
2018-04-13T18:07:51.783Z,11.00
2018-04-13T18:10:19.314Z,10.90
2018-04-13T18:12:46.835Z,10.80
2018-04-13T18:15:15.139Z,10.70
2018-04-13T18:17:43.420Z,10.70
2018-04-13T18:20:11.723Z,10.60
2018-04-13T18:22:39.247Z,10.60
2018-04-13T18:25:06.785Z,10.50
2018-04-13T18:27:34.308Z,10.40
2018-04-13T18:30:01.854Z,10.40
2018-04-13T18:32:29.403Z,10.40
2018-04-13T18:34:56.945Z,10.30
2018-04-13T18:37:25.225Z,10.30
2018-04-13T18:39:53.530Z,10.30
2018-04-13T18:42:21.380Z,10.20
2018-04-13T18:44:48.916Z,10.20
2018-04-13T18:47:16.446Z,10.20
2018-04-13T18:49:44.755Z,10.30
2018-04-13T18:52:12.289Z,10.30
2018-04-13T18:54:39.848Z,10.30
2018-04-13T18:57:08.141Z,10.20
2018-04-13T18:59:35.654Z,10.20
2018-04-13T19:02:03.183Z,10.10
2018-04-13T19:04:30.693Z,10.10
2018-04-13T19:06:58.231Z,10.10
2018-04-13T19:09:25.805Z,10.00
2018-04-13T19:11:53.344Z,10.00
2018-04-13T19:14:20.862Z,9.90
2018-04-13T19:16:48.390Z,9.90
2018-04-13T19:19:15.919Z,9.80
2018-04-13T19:21:43.468Z,9.80
2018-04-13T19:24:11.777Z,9.90
2018-04-13T19:26:40.074Z,9.80
2018-04-13T19:29:07.600Z,9.80
2018-04-13T19:31:35.134Z,9.80
2018-04-13T19:34:02.648Z,9.80
2018-04-13T19:36:30.178Z,9.80
2018-04-13T19:38:57.686Z,9.70
2018-04-13T19:41:25.232Z,9.70
2018-04-13T19:43:52.752Z,9.70
2018-04-13T19:46:21.054Z,9.80
2018-04-13T19:48:49.328Z,9.80
2018-04-13T19:51:16.855Z,9.80
2018-04-13T19:53:44.362Z,9.80
2018-04-13T19:56:11.896Z,9.70
2018-04-13T19:58:39.393Z,9.70
2018-04-13T20:01:06.963Z,9.70
2018-04-13T20:03:34.484Z,9.70
2018-04-13T20:06:02.023Z,9.80
2018-04-13T20:08:29.541Z,9.80
2018-04-13T20:10:57.086Z,9.80
2018-04-13T20:13:25.393Z,9.90
2018-04-13T20:15:52.941Z,9.80
2018-04-13T20:18:21.229Z,9.90
2018-04-13T20:20:49.508Z,9.80
2018-04-13T20:23:17.042Z,9.80
2018-04-13T20:25:44.553Z,9.80
2018-04-13T20:28:12.100Z,9.80
2018-04-13T20:30:39.607Z,9.80
2018-04-13T20:33:07.917Z,9.70
2018-04-13T20:35:35.447Z,9.70
2018-04-13T20:38:03.006Z,9.70
2018-04-13T20:40:30.551Z,9.70
2018-04-13T20:42:58.070Z,9.70
2018-04-13T20:45:25.576Z,9.70
2018-04-13T20:47:53.114Z,9.70
2018-04-13T20:50:21.394Z,9.60
2018-04-13T20:52:48.923Z,9.50
2018-04-13T20:55:16.445Z,9.50
2018-04-13T20:57:43.971Z,9.40
2018-04-13T21:00:11.530Z,9.40
2018-04-13T21:02:39.068Z,9.40
2018-04-13T21:05:07.357Z,9.30
2018-04-13T21:07:35.654Z,9.30
2018-04-13T21:10:03.939Z,9.20
2018-04-13T21:12:32.258Z,9.10
2018-04-13T21:14:59.770Z,9.20
2018-04-13T21:17:27.302Z,9.10
2018-04-13T21:19:54.866Z,9.10
2018-04-13T21:22:23.157Z,9.10
2018-04-13T21:24:50.737Z,9.10
2018-04-13T21:27:18.202Z,9.10
2018-04-13T21:29:45.756Z,9.10
2018-04-13T21:32:14.037Z,9.20
2018-04-13T21:34:42.328Z,9.10
2018-04-13T21:37:10.599Z,9.00
2018-04-13T21:39:38.123Z,9.00
2018-04-13T21:42:05.638Z,9.00
2018-04-13T21:44:33.171Z,8.90
2018-04-13T21:47:00.698Z,8.90
2018-04-13T21:49:29.021Z,8.80
2018-04-13T21:51:56.554Z,8.80
2018-04-13T21:54:24.082Z,8.80
2018-04-13T21:56:51.614Z,8.80
2018-04-13T21:59:19.910Z,8.70
2018-04-13T22:01:47.430Z,8.70
2018-04-13T22:04:14.958Z,8.70
2018-04-13T22:06:42.472Z,8.70
2018-04-13T22:09:10.006Z,8.70
2018-04-13T22:11:37.505Z,8.60
2018-04-13T22:14:16.864Z,8.60
2018-04-13T22:16:44.370Z,8.50
2018-04-13T22:19:12.675Z,8.50
2018-04-13T22:21:40.193Z,8.50
2018-04-13T22:24:07.721Z,8.60
2018-04-13T22:26:35.266Z,8.50
2018-04-13T22:29:02.762Z,8.50
2018-04-13T22:31:30.294Z,8.50
2018-04-13T22:33:57.788Z,8.50
2018-04-13T22:36:26.085Z,8.30
2018-04-13T22:38:54.365Z,8.30
2018-04-13T22:41:22.646Z,8.30
2018-04-13T22:43:50.139Z,8.20
2018-04-13T22:46:18.428Z,8.30
2018-04-13T22:48:45.927Z,8.30
2018-04-13T22:51:13.451Z,8.30
2018-04-13T22:53:40.952Z,8.30
2018-04-13T22:56:08.488Z,8.20
2018-04-13T22:58:35.998Z,8.10
2018-04-13T23:01:03.522Z,8.10
2018-04-13T23:03:31.017Z,8.00
2018-04-13T23:05:59.319Z,7.90
2018-04-13T23:08:26.816Z,7.90
2018-04-13T23:10:54.333Z,7.90
2018-04-13T23:13:21.837Z,7.90
2018-04-13T23:15:49.346Z,8.00
2018-04-13T23:18:16.832Z,7.90
2018-04-13T23:20:44.358Z,7.80
2018-04-13T23:23:11.854Z,7.70
2018-04-13T23:25:39.747Z,7.80
2018-04-13T23:28:07.409Z,7.80
2018-04-13T23:30:35.133Z,7.80
2018-04-13T23:33:03.395Z,7.80
2018-04-13T23:35:31.073Z,7.70
2018-04-13T23:37:58.638Z,7.70
2018-04-13T23:40:26.564Z,7.80
2018-04-13T23:42:54.075Z,7.80
2018-04-13T23:45:21.757Z,7.80
2018-04-13T23:47:49.576Z,7.80
2018-04-13T23:50:17.490Z,7.80
2018-04-13T23:52:45.138Z,7.70
2018-04-13T23:55:12.688Z,7.70
2018-04-13T23:57:40.204Z,7.70
